• Join FlightAware (Why Join?)
  • Login
  • US Flag 
06:05PM EST


 

Airport Tracker/Info


-or-


 

Live Flight TrackerFlight Track Log ✈ CSZ9508 ✈ 24-Jul-2014 ✈ ZGSZ / SZX - ZSWX / WUX

Flight Track Log - Related Links

Times and Time Zones

All times are in EDT time to prevent confusion due to time zone crossing. See the CSZ9508 flight status page for this flight to view local times or setup timezone preferences in your user account.

Time Position Orientation Groundspeed Altitude Reporting Facility
EDT Latitude Longitude Course Direction KTS MPH feet Rate Location/Type
01:38AM 23.2166 114.2079 32° Northeast  Level Estimated
01:39AM 23.2989 114.2647 32° Northeast  Level Estimated
01:40AM 23.3812 114.3216 32° Northeast  Level Estimated
01:41AM 23.4636 114.3785 32° Northeast  Level Estimated
01:42AM 23.5459 114.4355 32° Northeast  Level Estimated
01:43AM 23.6281 114.4925 32° Northeast  Level Estimated
01:44AM 23.7104 114.5497 32° Northeast  Level Estimated
01:45AM 23.7926 114.6069 32° Northeast  Level Estimated
01:46AM 23.8748 114.6642 32° Northeast  Level Estimated
01:47AM 23.9570 114.7215 33° Northeast  Level Estimated
01:48AM 24.0392 114.7790 33° Northeast  Level Estimated
01:49AM 24.1213 114.8364 33° Northeast  Level Estimated
01:50AM 24.2035 114.8940 33° Northeast  Level Estimated
01:51AM 24.2856 114.9517 33° Northeast  Level Estimated
01:52AM 24.3677 115.0094 33° Northeast  Level Estimated
01:53AM 24.4497 115.0672 33° Northeast  Level Estimated
01:54AM 24.5318 115.1251 33° Northeast  Level Estimated
01:55AM 24.6138 115.1830 33° Northeast  Level Estimated
01:56AM 24.6958 115.2410 33° Northeast  Level Estimated
01:57AM 24.7778 115.2991 33° Northeast  Level Estimated
01:58AM 24.8597 115.3573 33° Northeast  Level Estimated
01:59AM 24.9416 115.4156 33° Northeast  Level Estimated
02:00AM 25.0235 115.4739 33° Northeast  Level Estimated
02:01AM 25.1054 115.5323 33° Northeast  Level Estimated
02:02AM 25.1873 115.5908 33° Northeast  Level Estimated
02:03AM 25.2691 115.6494 33° Northeast  Level Estimated
02:04AM 25.3509 115.7080 33° Northeast  Level Estimated
02:05AM 25.4327 115.7667 33° Northeast  Level Estimated
02:06AM 25.5145 115.8255 33° Northeast  Level Estimated
02:07AM 25.5962 115.8844 33° Northeast  Level Estimated
02:08AM 25.6780 115.9434 33° Northeast  Level Estimated
02:09AM 25.7596 116.0024 33° Northeast  Level Estimated
02:10AM 25.8413 116.0616 33° Northeast  Level Estimated
02:11AM 25.9230 116.1208 33° Northeast  Level Estimated
02:12AM 26.0046 116.1801 33° Northeast  Level Estimated
02:13AM 26.0862 116.2394 33° Northeast  Level Estimated
02:14AM 26.1678 116.2989 33° Northeast  Level Estimated
02:15AM 26.2493 116.3584 33° Northeast  Level Estimated
02:16AM 26.3309 116.4181 33° Northeast  Level Estimated
02:17AM 26.4124 116.4778 33° Northeast  Level Estimated
02:18AM 26.4938 116.5376 33° Northeast  Level Estimated
02:19AM 26.5753 116.5974 33° Northeast  Level Estimated
02:20AM 26.6567 116.6574 33° Northeast  Level Estimated
02:21AM 26.7381 116.7175 33° Northeast  Level Estimated
02:22AM 26.8195 116.7776 33° Northeast  Level Estimated
02:23AM 26.9008 116.8378 33° Northeast  Level Estimated
02:24AM 26.9822 116.8981 33° Northeast  Level Estimated
02:25AM 27.0635 116.9585 33° Northeast  Level Estimated
02:26AM 27.1448 117.0190 34° Northeast  Level Estimated
02:27AM 27.2260 117.0796 34° Northeast  Level Estimated
02:28AM 27.3072 117.1402 34° Northeast  Level Estimated
02:29AM 27.3884 117.2010 34° Northeast  Level Estimated
02:30AM 27.4696 117.2618 34° Northeast  Level Estimated
02:31AM 27.5507 117.3227 34° Northeast  Level Estimated
02:32AM 27.6318 117.3838 34° Northeast  Level Estimated
02:33AM 27.7129 117.4448 34° Northeast  Level Estimated
02:34AM 27.7940 117.5061 34° Northeast  Level Estimated
02:35AM 27.8750 117.5673 34° Northeast  Level Estimated
02:36AM 27.9560 117.6287 34° Northeast  Level Estimated
02:37AM 28.0370 117.6902 34° Northeast  Level Estimated
02:38AM 28.1180 117.7518 34° Northeast  Level Estimated
02:39AM 28.1989 117.8134 34° Northeast  Level Estimated
02:40AM 28.2798 117.8752 34° Northeast  Level Estimated
02:41AM 28.3607 117.9370 34° Northeast  Level Estimated
02:42AM 28.4415 117.9990 34° Northeast  Level Estimated
02:43AM 28.5223 118.0610 34° Northeast  Level Estimated
02:44AM 28.6031 118.1231 34° Northeast  Level Estimated
02:45AM 28.6839 118.1853 34° Northeast  Level Estimated
02:46AM 28.7646 118.2477 34° Northeast  Level Estimated
02:47AM 28.8453 118.3101 34° Northeast  Level Estimated
02:48AM 28.9260 118.3726 34° Northeast  Level Estimated
02:49AM 29.0066 118.4352 34° Northeast  Level Estimated
02:50AM 29.0872 118.4979 34° Northeast  Level Estimated
02:51AM 29.1678 118.5607 34° Northeast  Level Estimated
02:52AM 29.2484 118.6236 34° Northeast  Level Estimated
02:53AM 29.3289 118.6867 34° Northeast  Level Estimated
02:54AM 29.4094 118.7497 34° Northeast  Level Estimated
02:55AM 29.4899 118.8130 34° Northeast  Level Estimated
02:56AM 29.5703 118.8763 34° Northeast  Level Estimated
02:57AM 29.6507 118.9397 34° Northeast  Level Estimated
02:58AM 29.7311 119.0032 34° Northeast  Level Estimated
02:59AM 29.8114 119.0668 34° Northeast  Level Estimated
03:00AM 29.8918 119.1305 35° Northeast  Level Estimated
03:01AM 29.9720 119.1943 35° Northeast  Level Estimated
03:02AM 30.0523 119.2582 35° Northeast  Level Estimated
03:03AM 30.1325 119.3223 35° Northeast  Level Estimated
03:04AM 30.2127 119.3864 35° Northeast  Level Estimated
03:05AM 30.2929 119.4506 35° Northeast  Level Estimated
03:06AM 30.3730 119.5150 35° Northeast  Level Estimated
03:07AM 30.4531 119.5794 35° Northeast  Level Estimated
03:08AM 30.5332 119.6439 35° Northeast  Level Estimated
03:09AM 30.6132 119.7086 35° Northeast  Level Estimated
03:10AM 30.6932 119.7734 35° Northeast  Level Estimated
03:11AM 30.7732 119.8382 35° Northeast  Level Estimated
03:12AM 30.8531 119.9032 35° Northeast  Level Estimated
03:13AM 30.9330 119.9683 35° Northeast  Level Estimated
03:14AM 31.0129 120.0335 35° Northeast  Level Estimated
03:15AM 31.0927 120.0988 35° Northeast  Level Estimated
03:16AM 31.1725 120.1642 35° Northeast  Level Estimated
03:17AM 31.2523 120.2297 35° Northeast  Level Estimated
03:18AM 31.3321 120.2954 35° Northeast  Level Estimated
03:19AM 31.4118 120.3611 35° Northeast  Level Estimated
03:20AM 31.4914 120.4270 35° Northeast  Level Estimated
03:21AM 31.4944 120.4294 35° Northeast  Level Estimated
03:22AM 31.4944 120.4294 North  Level Estimated
03:23AM 31.4944 120.4294 North  Level Estimated
03:24AM 31.4944 120.4294 North  Level Estimated
03:25AM 31.4944 120.4294 North  Level Estimated
03:26AM 31.4944 120.4294 North  Level Estimated
03:27AM 31.4944 120.4294 North  Level Estimated
03:28AM 31.4944 120.4294 North  Level Estimated
03:29AM 31.4944 120.4294 North  Level Estimated
03:30AM 31.4944 120.4294 North  Level Estimated
03:31AM 31.4944 120.4294 North  Level Estimated
03:32AM 31.4944 120.4294 North  Level Estimated
03:33AM 31.4944 120.4294 North  Level Estimated
03:34AM 31.4944 120.4294 North  Level Estimated